createdAt,value
2018-04-06T00:00:44.897Z,5.20
2018-04-06T00:01:44.907Z,5.19
2018-04-06T00:02:44.937Z,5.30
2018-04-06T00:03:44.948Z,5.26
2018-04-06T00:04:44.965Z,5.23
2018-04-06T00:05:44.976Z,5.24
2018-04-06T00:06:45.001Z,5.33
2018-04-06T00:07:45.013Z,5.29
2018-04-06T00:08:45.037Z,5.33
2018-04-06T00:09:45.051Z,5.30
2018-04-06T00:10:45.066Z,5.35
2018-04-06T00:11:45.090Z,5.30
2018-04-06T00:12:45.101Z,5.26
2018-04-06T00:13:45.118Z,5.23
2018-04-06T00:14:45.138Z,5.24
2018-04-06T00:15:45.155Z,5.26
2018-04-06T00:16:45.177Z,5.29
2018-04-06T00:17:45.235Z,5.22
2018-04-06T00:18:45.202Z,5.26
2018-04-06T00:19:45.221Z,5.19
2018-04-06T00:20:45.246Z,5.20
2018-04-06T00:21:45.260Z,5.22
2018-04-06T00:22:45.275Z,5.20
2018-04-06T00:23:45.294Z,5.12
2018-04-06T00:24:45.305Z,5.22
2018-04-06T00:25:45.326Z,5.19
2018-04-06T00:26:45.352Z,5.11
2018-04-06T00:27:45.364Z,5.06
2018-04-06T00:28:45.381Z,5.14
2018-04-06T00:29:45.394Z,5.12
2018-04-06T00:30:45.416Z,5.04
2018-04-06T00:31:45.425Z,5.02
2018-04-06T00:32:45.443Z,4.93
2018-04-06T00:33:45.463Z,4.96
2018-04-06T00:34:45.480Z,5.05
2018-04-06T00:35:45.495Z,5.06
2018-04-06T00:36:45.514Z,4.97
2018-04-06T00:37:45.534Z,4.96
2018-04-06T00:38:45.549Z,4.86
2018-04-06T00:39:45.568Z,4.93
2018-04-06T00:40:45.580Z,4.96
2018-04-06T00:41:45.595Z,4.94
2018-04-06T00:42:45.615Z,4.87
2018-04-06T00:43:45.632Z,4.94
2018-04-06T00:44:45.654Z,4.97
2018-04-06T00:45:45.670Z,4.99
2018-04-06T00:46:45.691Z,4.90
2018-04-06T00:47:45.700Z,4.93
2018-04-06T00:48:45.720Z,4.91
2018-04-06T00:49:45.737Z,4.87
2018-04-06T00:50:45.753Z,4.79
2018-04-06T00:51:45.773Z,4.83
2018-04-06T00:52:45.783Z,4.80
2018-04-06T00:53:45.799Z,4.83
2018-04-06T00:54:45.818Z,4.74
2018-04-06T00:55:45.840Z,4.71
2018-04-06T00:56:45.853Z,4.75
2018-04-06T00:57:45.869Z,4.77
2018-04-06T00:58:45.892Z,4.75
2018-04-06T00:59:45.905Z,4.71
2018-04-06T01:00:45.928Z,4.80
2018-04-06T01:01:45.947Z,4.68
2018-04-06T01:02:45.957Z,4.72
2018-04-06T01:03:45.973Z,4.69
2018-04-06T01:04:45.992Z,4.69
2018-04-06T01:05:46.008Z,4.75
2018-04-06T01:06:46.023Z,4.72
2018-04-06T01:07:46.039Z,4.72
2018-04-06T01:08:46.061Z,4.74
2018-04-06T01:09:46.073Z,4.69
2018-04-06T01:10:46.090Z,4.72
2018-04-06T01:11:46.108Z,4.71
2018-04-06T01:12:46.123Z,4.72
2018-04-06T01:13:46.140Z,4.71
2018-04-06T01:14:46.158Z,4.69
2018-04-06T01:15:46.173Z,4.77
2018-04-06T01:16:46.194Z,4.74
2018-04-06T01:17:46.209Z,4.74
2018-04-06T01:18:46.233Z,4.59
2018-04-06T01:19:46.244Z,4.61
2018-04-06T01:20:46.259Z,4.54
2018-04-06T01:21:46.273Z,4.65
2018-04-06T01:22:46.288Z,4.53
2018-04-06T01:23:46.322Z,4.54
2018-04-06T01:24:46.328Z,4.54
2018-04-06T01:25:46.344Z,4.59
2018-04-06T01:26:46.357Z,4.65
2018-04-06T01:27:46.377Z,4.51
2018-04-06T01:28:46.393Z,4.50
2018-04-06T01:29:46.407Z,4.51
2018-04-06T01:30:46.431Z,4.57
2018-04-06T01:31:46.443Z,4.56
2018-04-06T01:32:46.462Z,4.53
2018-04-06T01:33:46.476Z,4.56
2018-04-06T01:34:46.492Z,4.59
2018-04-06T01:35:46.511Z,4.61
2018-04-06T01:36:46.531Z,4.64
2018-04-06T01:37:46.546Z,4.50
2018-04-06T01:38:46.561Z,4.47
2018-04-06T01:39:46.580Z,4.46
2018-04-06T01:40:46.596Z,4.43
2018-04-06T01:41:46.610Z,4.47
2018-04-06T01:42:46.626Z,4.42
2018-04-06T01:43:46.646Z,4.49
2018-04-06T01:44:46.662Z,4.42
2018-04-06T01:45:46.677Z,4.42
2018-04-06T01:46:46.696Z,4.38
2018-04-06T01:47:46.715Z,4.39
2018-04-06T01:48:46.728Z,4.38
2018-04-06T01:49:46.741Z,4.42
2018-04-06T01:50:46.762Z,4.44
2018-04-06T01:51:46.776Z,4.46
2018-04-06T01:52:46.797Z,4.35
2018-04-06T01:53:46.807Z,4.39
2018-04-06T01:54:46.825Z,4.36
2018-04-06T01:55:46.851Z,4.39
2018-04-06T01:56:46.861Z,4.26
2018-04-06T01:57:46.876Z,4.35
2018-04-06T01:58:46.890Z,4.34
2018-04-06T01:59:46.911Z,4.42
2018-04-06T02:00:46.926Z,4.25
2018-04-06T02:01:46.945Z,4.36
2018-04-06T02:02:46.964Z,4.42
2018-04-06T02:03:46.977Z,4.44
2018-04-06T02:04:47.000Z,4.42
2018-04-06T02:05:47.005Z,4.38
2018-04-06T02:06:47.028Z,4.43
2018-04-06T02:07:47.044Z,4.36
2018-04-06T02:08:47.065Z,4.43
2018-04-06T02:09:47.074Z,4.44
2018-04-06T02:10:47.147Z,4.39
2018-04-06T02:11:47.109Z,4.35
2018-04-06T02:12:47.137Z,4.36
2018-04-06T02:13:47.144Z,4.38
2018-04-06T02:14:47.159Z,4.38
2018-04-06T02:15:47.174Z,4.39
2018-04-06T02:16:47.201Z,4.24
2018-04-06T02:17:47.206Z,4.25
2018-04-06T02:18:47.229Z,4.36
2018-04-06T02:19:47.244Z,4.38
2018-04-06T02:20:47.255Z,4.24
2018-04-06T02:21:47.274Z,4.29
2018-04-06T02:22:47.298Z,4.26
2018-04-06T02:23:47.308Z,4.42
2018-04-06T02:24:47.370Z,4.38
2018-04-06T02:25:47.338Z,4.28
2018-04-06T02:26:47.364Z,4.28
2018-04-06T02:27:47.379Z,4.34
2018-04-06T02:28:47.397Z,4.35
2018-04-06T02:29:47.409Z,4.42
2018-04-06T02:30:47.427Z,4.38
2018-04-06T02:31:47.448Z,4.32
2018-04-06T02:32:47.463Z,4.29
2018-04-06T02:33:47.474Z,4.31
2018-04-06T02:34:47.492Z,4.34
2018-04-06T02:35:47.510Z,4.21
2018-04-06T02:36:47.525Z,4.35
2018-04-06T02:37:47.539Z,4.31
2018-04-06T02:38:47.562Z,4.21
2018-04-06T02:39:47.574Z,4.34
2018-04-06T02:40:47.594Z,4.29
2018-04-06T02:41:47.609Z,4.25
2018-04-06T02:42:47.627Z,4.35
2018-04-06T02:43:47.642Z,4.20
2018-04-06T02:44:47.668Z,4.29
2018-04-06T02:45:47.673Z,4.16
2018-04-06T02:46:47.691Z,4.20
2018-04-06T02:47:47.715Z,4.26
2018-04-06T02:48:47.739Z,4.25
2018-04-06T02:49:47.743Z,4.25
2018-04-06T02:50:47.758Z,4.21
2018-04-06T02:51:47.778Z,4.25
2018-04-06T02:52:47.789Z,4.25
2018-04-06T02:53:47.810Z,4.21
2018-04-06T02:54:47.833Z,4.17
2018-04-06T02:55:47.847Z,4.25
2018-04-06T02:56:47.857Z,4.26
2018-04-06T02:57:47.875Z,4.29
2018-04-06T02:58:47.891Z,4.31
2018-04-06T02:59:47.909Z,4.26
2018-04-06T03:00:47.925Z,4.28
2018-04-06T03:01:47.946Z,4.29
2018-04-06T03:02:47.959Z,4.28
2018-04-06T03:03:47.973Z,4.31
2018-04-06T03:04:47.993Z,4.35
2018-04-06T03:05:48.009Z,4.21
2018-04-06T03:06:48.023Z,4.17
2018-04-06T03:07:48.042Z,4.32
2018-04-06T03:08:48.057Z,4.20
2018-04-06T03:09:48.083Z,4.29
2018-04-06T03:10:48.088Z,4.18
2018-04-06T03:11:48.110Z,4.24
2018-04-06T03:12:48.124Z,4.32
2018-04-06T03:13:48.142Z,4.24
2018-04-06T03:14:48.161Z,4.31
2018-04-06T03:15:48.173Z,4.20
2018-04-06T03:16:48.191Z,4.25
2018-04-06T03:17:48.216Z,4.32
2018-04-06T03:18:48.230Z,4.28
2018-04-06T03:19:48.242Z,4.32
2018-04-06T03:20:48.256Z,4.24
2018-04-06T03:21:48.275Z,4.17
2018-04-06T03:22:48.291Z,4.20
2018-04-06T03:23:48.304Z,4.26
2018-04-06T03:24:48.325Z,4.26
2018-04-06T03:25:48.342Z,4.38
2018-04-06T03:26:48.360Z,4.31
2018-04-06T03:27:48.371Z,4.24
2018-04-06T03:28:48.393Z,4.28
2018-04-06T03:29:48.409Z,4.25
2018-04-06T03:30:48.420Z,4.25
2018-04-06T03:31:48.441Z,4.25
2018-04-06T03:32:48.456Z,4.24
2018-04-06T03:33:48.470Z,4.26
2018-04-06T03:34:48.486Z,4.25
2018-04-06T03:35:48.510Z,4.25
2018-04-06T03:36:48.520Z,4.18
2018-04-06T03:37:48.536Z,4.18
2018-04-06T03:38:48.570Z,4.08
2018-04-06T03:39:48.568Z,4.17
2018-04-06T03:40:48.586Z,4.16
2018-04-06T03:41:48.615Z,4.17
2018-04-06T03:42:48.621Z,4.13
2018-04-06T03:43:48.639Z,4.18
2018-04-06T03:44:48.655Z,4.20
2018-04-06T03:45:48.670Z,4.14
2018-04-06T03:46:48.688Z,4.29
2018-04-06T03:47:48.707Z,4.28
2018-04-06T03:48:48.723Z,4.24
2018-04-06T03:49:48.735Z,4.29
2018-04-06T03:50:48.750Z,4.21
2018-04-06T03:51:48.770Z,4.25
2018-04-06T03:52:48.785Z,4.21
2018-04-06T03:53:48.804Z,4.20
2018-04-06T03:54:48.826Z,4.25
2018-04-06T03:55:48.839Z,4.16
2018-04-06T03:56:48.849Z,4.20
2018-04-06T03:57:48.875Z,4.16
2018-04-06T03:58:48.887Z,4.24
2018-04-06T03:59:48.905Z,4.21
2018-04-06T04:00:48.924Z,4.29
2018-04-06T04:01:48.934Z,4.24
2018-04-06T04:02:48.953Z,4.26
2018-04-06T04:03:48.965Z,4.20
2018-04-06T04:04:48.983Z,4.25
2018-04-06T04:05:49.007Z,4.28
2018-04-06T04:06:49.014Z,4.21
2018-04-06T04:07:49.033Z,4.20
2018-04-06T04:08:49.052Z,4.24
2018-04-06T04:09:49.064Z,4.28
2018-04-06T04:10:49.081Z,4.28
2018-04-06T04:11:49.098Z,4.18
2018-04-06T04:12:49.115Z,4.16
2018-04-06T04:13:49.128Z,4.28
2018-04-06T04:14:49.149Z,4.20
2018-04-06T04:15:49.163Z,4.18
2018-04-06T04:16:49.185Z,4.26
2018-04-06T04:17:49.202Z,4.21
2018-04-06T04:18:49.215Z,4.17
2018-04-06T04:19:49.233Z,4.17
2018-04-06T04:20:49.249Z,4.17
2018-04-06T04:21:49.265Z,4.17
2018-04-06T04:22:49.297Z,4.20
2018-04-06T04:23:49.300Z,4.24
2018-04-06T04:24:49.312Z,4.25
2018-04-06T04:25:49.328Z,4.24
2018-04-06T04:26:49.347Z,4.24
2018-04-06T04:27:49.360Z,4.26
2018-04-06T04:28:49.392Z,4.25
2018-04-06T04:29:49.392Z,4.24
2018-04-06T04:30:49.418Z,4.20
2018-04-06T04:31:49.427Z,4.17
2018-04-06T04:32:49.442Z,4.16
2018-04-06T04:33:49.458Z,4.16
2018-04-06T04:34:49.480Z,4.14
2018-04-06T04:35:49.492Z,4.20
2018-04-06T04:36:49.516Z,4.28
2018-04-06T04:37:49.531Z,4.18
2018-04-06T04:38:49.542Z,4.20
2018-04-06T04:39:49.559Z,4.20
2018-04-06T04:40:49.580Z,4.26
2018-04-06T04:41:49.592Z,4.07
2018-04-06T04:42:49.606Z,4.11
2018-04-06T04:43:49.626Z,4.18
2018-04-06T04:44:49.651Z,4.04
2018-04-06T04:45:49.657Z,4.10
2018-04-06T04:46:49.678Z,4.07
2018-04-06T04:47:49.707Z,3.99
2018-04-06T04:48:49.708Z,4.07
2018-04-06T04:49:49.726Z,3.98
2018-04-06T04:50:49.748Z,4.06
2018-04-06T04:51:49.760Z,4.04
2018-04-06T04:52:49.776Z,4.04
2018-04-06T04:53:49.791Z,4.13
2018-04-06T04:54:49.810Z,4.08
2018-04-06T04:55:49.826Z,4.04
2018-04-06T04:56:49.836Z,4.14
2018-04-06T04:57:49.865Z,4.00
2018-04-06T04:58:49.875Z,3.98
2018-04-06T04:59:49.887Z,3.92
2018-04-06T05:00:49.905Z,3.96
2018-04-06T05:01:49.920Z,4.00
2018-04-06T05:02:49.936Z,3.96
2018-04-06T05:03:49.955Z,3.99
2018-04-06T05:04:49.971Z,3.95
2018-04-06T05:05:49.993Z,4.04
2018-04-06T05:06:50.005Z,3.93
2018-04-06T05:07:50.022Z,3.98
2018-04-06T05:08:50.040Z,4.04
2018-04-06T05:09:50.058Z,4.10
2018-04-06T05:10:50.069Z,3.99
2018-04-06T05:11:50.090Z,4.06
2018-04-06T05:12:50.099Z,4.04
2018-04-06T05:13:50.119Z,4.06
2018-04-06T05:14:50.138Z,4.07
2018-04-06T05:15:50.155Z,4.02
2018-04-06T05:16:50.173Z,4.02
2018-04-06T05:17:50.184Z,4.08
2018-04-06T05:18:50.204Z,3.99
2018-04-06T05:19:50.219Z,4.04
2018-04-06T05:20:50.234Z,4.00
2018-04-06T05:21:50.254Z,4.10
2018-04-06T05:22:50.264Z,3.98
2018-04-06T05:23:50.291Z,4.10
2018-04-06T05:24:50.301Z,4.06
2018-04-06T05:25:50.319Z,3.99
2018-04-06T05:26:50.335Z,4.06
2018-04-06T05:27:50.349Z,3.98
2018-04-06T05:28:50.372Z,4.04
2018-04-06T05:29:50.386Z,4.08
2018-04-06T05:30:50.397Z,4.06
2018-04-06T05:31:50.419Z,4.11
2018-04-06T05:32:50.437Z,3.99
2018-04-06T05:33:50.445Z,4.07
2018-04-06T05:34:50.465Z,4.11
2018-04-06T05:35:50.479Z,4.16
2018-04-06T05:36:50.498Z,4.11
2018-04-06T05:37:50.516Z,4.13
2018-04-06T05:38:50.580Z,4.11
2018-04-06T05:39:50.546Z,4.14
2018-04-06T05:40:50.566Z,4.14
2018-04-06T05:41:50.579Z,4.11
2018-04-06T05:42:50.596Z,4.13
2018-04-06T05:43:50.613Z,4.18
2018-04-06T05:44:50.634Z,4.13
2018-04-06T05:45:50.646Z,4.21
2018-04-06T05:46:50.666Z,4.18
2018-04-06T05:47:50.677Z,4.26
2018-04-06T05:48:50.692Z,4.17
2018-04-06T05:49:50.714Z,4.20
2018-04-06T05:50:50.730Z,4.21
2018-04-06T05:51:50.751Z,4.31
2018-04-06T05:52:50.765Z,4.26
2018-04-06T05:53:50.782Z,4.21
2018-04-06T05:54:50.797Z,4.24
2018-04-06T05:55:50.817Z,4.31
2018-04-06T05:56:50.832Z,4.18
2018-04-06T05:57:50.848Z,4.25
2018-04-06T05:58:50.863Z,4.36
2018-04-06T05:59:50.882Z,4.38
2018-04-06T06:00:50.896Z,4.38
2018-04-06T06:01:50.916Z,4.36
2018-04-06T06:02:50.927Z,4.31
2018-04-06T06:03:50.946Z,4.39
2018-04-06T06:04:50.963Z,4.39
2018-04-06T06:05:50.977Z,4.36
2018-04-06T06:06:51.004Z,4.38
2018-04-06T06:07:51.018Z,4.42
2018-04-06T06:08:51.031Z,4.44
2018-04-06T06:09:51.054Z,4.44
2018-04-06T06:10:51.065Z,4.46
2018-04-06T06:11:51.081Z,4.49
2018-04-06T06:12:51.100Z,4.53
2018-04-06T06:13:51.118Z,4.34
2018-04-06T06:14:51.135Z,4.47
2018-04-06T06:15:51.152Z,4.53
2018-04-06T06:16:51.171Z,4.42
2018-04-06T06:17:51.204Z,4.42
2018-04-06T06:18:51.195Z,4.47
2018-04-06T06:19:51.213Z,4.51
2018-04-06T06:20:51.235Z,4.62
2018-04-06T06:21:51.248Z,4.51
2018-04-06T06:22:51.267Z,4.62
2018-04-06T06:23:51.285Z,4.50
2018-04-06T06:24:51.321Z,4.51
2018-04-06T06:25:51.316Z,4.49
2018-04-06T06:26:51.334Z,4.57
2018-04-06T06:27:51.355Z,4.62
2018-04-06T06:28:51.369Z,4.67
2018-04-06T06:29:51.385Z,4.61
2018-04-06T06:30:51.400Z,4.61
2018-04-06T06:31:51.418Z,4.67
2018-04-06T06:32:51.434Z,4.61
2018-04-06T06:33:51.449Z,4.71
2018-04-06T06:34:51.469Z,4.69
2018-04-06T06:35:51.489Z,4.68
2018-04-06T06:36:51.558Z,4.68
2018-04-06T06:37:51.519Z,4.65
2018-04-06T06:38:51.535Z,4.56
2018-04-06T06:39:51.554Z,4.64
2018-04-06T06:40:51.577Z,4.64
2018-04-06T06:41:51.589Z,4.69
2018-04-06T06:42:51.633Z,4.67
2018-04-06T06:43:51.618Z,4.67
2018-04-06T06:44:51.642Z,4.75
2018-04-06T06:45:51.654Z,4.71
2018-04-06T06:46:51.677Z,4.74
2018-04-06T06:47:51.689Z,4.71
2018-04-06T06:48:51.712Z,4.77
2018-04-06T06:49:51.725Z,4.79
2018-04-06T06:50:51.743Z,4.80
2018-04-06T06:51:51.763Z,4.86
2018-04-06T06:52:51.778Z,4.86
2018-04-06T06:53:51.795Z,4.96
2018-04-06T06:54:51.809Z,4.93
2018-04-06T06:55:51.823Z,4.97
2018-04-06T06:56:51.847Z,4.90
2018-04-06T06:57:51.857Z,4.93
2018-04-06T06:58:51.882Z,4.93
2018-04-06T06:59:51.902Z,4.91
2018-04-06T07:00:51.910Z,5.05
2018-04-06T07:01:51.928Z,5.05
2018-04-06T07:02:51.946Z,5.01
2018-04-06T07:03:51.971Z,5.08
2018-04-06T07:04:51.992Z,5.08
2018-04-06T07:05:52.005Z,5.09
2018-04-06T07:06:52.017Z,5.19
2018-04-06T07:07:52.028Z,5.20
2018-04-06T07:08:52.048Z,5.24
2018-04-06T07:09:52.066Z,5.20
2018-04-06T07:10:52.084Z,5.22
2018-04-06T07:11:52.103Z,5.26
2018-04-06T07:12:52.124Z,5.32
2018-04-06T07:13:52.143Z,5.35
2018-04-06T07:14:52.154Z,5.33
2018-04-06T07:15:52.172Z,5.35
2018-04-06T07:16:52.192Z,5.38
2018-04-06T07:17:52.208Z,5.33
2018-04-06T07:18:52.226Z,5.29
2018-04-06T07:19:52.246Z,5.37
2018-04-06T07:20:52.256Z,5.42
2018-04-06T07:21:52.277Z,5.49
2018-04-06T07:22:52.305Z,5.52
2018-04-06T07:23:52.316Z,5.52
2018-04-06T07:24:52.328Z,5.65
2018-04-06T07:25:52.346Z,5.67
2018-04-06T07:26:52.368Z,5.67
2018-04-06T07:27:52.381Z,5.70
2018-04-06T07:28:52.402Z,5.69
2018-04-06T07:29:52.418Z,5.84
2018-04-06T07:30:52.449Z,5.78
2018-04-06T07:31:52.456Z,5.83
2018-04-06T07:32:52.474Z,5.74
2018-04-06T07:33:52.491Z,5.84
2018-04-06T07:34:52.515Z,5.88
2018-04-06T07:35:52.529Z,5.93
2018-04-06T07:36:52.542Z,5.99
2018-04-06T07:37:52.654Z,6.03
2018-04-06T07:38:52.595Z,6.03
2018-04-06T07:39:52.622Z,6.06
2018-04-06T07:40:52.764Z,6.08
2018-04-06T07:41:52.829Z,6.05
2018-04-06T07:42:52.671Z,6.08
2018-04-06T07:43:52.690Z,6.11
2018-04-06T07:44:52.696Z,6.16
2018-04-06T07:45:52.730Z,6.14
2018-04-06T07:46:52.940Z,6.19
2018-04-06T07:47:52.955Z,6.17
2018-04-06T07:48:52.908Z,6.30
2018-04-06T07:49:52.776Z,6.20
2018-04-06T07:50:52.836Z,6.27
2018-04-06T07:51:53.041Z,6.17
2018-04-06T07:52:53.036Z,6.28
2018-04-06T07:53:52.850Z,6.28
2018-04-06T07:54:52.870Z,6.33
2018-04-06T07:55:52.891Z,6.32
2018-04-06T07:56:52.908Z,6.33
2018-04-06T07:57:52.926Z,6.28
2018-04-06T07:58:52.945Z,6.32
2018-04-06T07:59:52.962Z,6.39
2018-04-06T08:00:52.987Z,6.36
2018-04-06T08:01:52.997Z,6.45
2018-04-06T08:02:53.018Z,6.43
2018-04-06T08:03:53.037Z,6.53
2018-04-06T08:04:53.059Z,6.50
2018-04-06T08:05:53.080Z,6.55
2018-04-06T08:06:53.094Z,6.53
2018-04-06T08:07:53.108Z,6.50
2018-04-06T08:08:53.126Z,6.54
2018-04-06T08:09:53.144Z,6.51
2018-04-06T08:10:53.175Z,6.58
2018-04-06T08:11:53.178Z,6.53
2018-04-06T08:12:53.203Z,6.53
2018-04-06T08:13:53.220Z,6.57
2018-04-06T08:14:53.238Z,6.58
2018-04-06T08:15:53.255Z,6.55
2018-04-06T08:16:53.279Z,6.63
2018-04-06T08:17:53.294Z,6.73
2018-04-06T08:18:53.312Z,6.61
2018-04-06T08:19:53.329Z,6.69
2018-04-06T08:20:53.350Z,6.71
2018-04-06T08:21:53.370Z,6.72
2018-04-06T08:22:53.389Z,6.79
2018-04-06T08:23:53.412Z,6.79
2018-04-06T08:24:53.475Z,6.82
2018-04-06T08:25:53.444Z,6.81
2018-04-06T08:26:53.463Z,6.78
2018-04-06T08:27:53.489Z,6.86
2018-04-06T08:28:53.499Z,6.79
2018-04-06T08:29:53.519Z,6.83
2018-04-06T08:30:53.540Z,6.91
2018-04-06T08:31:53.559Z,6.81
2018-04-06T08:32:53.581Z,6.93
2018-04-06T08:33:53.597Z,6.97
2018-04-06T08:34:53.640Z,6.93
2018-04-06T08:35:53.637Z,6.96
2018-04-06T08:36:53.655Z,7.00
2018-04-06T08:37:53.677Z,6.96
2018-04-06T08:38:53.697Z,7.12
2018-04-06T08:39:53.739Z,7.16
2018-04-06T08:40:53.735Z,7.15
2018-04-06T08:41:53.751Z,7.16
2018-04-06T08:42:53.768Z,7.33
2018-04-06T08:43:53.783Z,7.27
2018-04-06T08:44:53.810Z,7.30
2018-04-06T08:45:53.827Z,7.24
2018-04-06T08:46:53.840Z,7.29
2018-04-06T08:47:53.862Z,7.37
2018-04-06T08:48:53.883Z,7.42
2018-04-06T08:49:53.902Z,7.42
2018-04-06T08:50:53.927Z,7.42
2018-04-06T08:51:53.937Z,7.48
2018-04-06T08:52:53.960Z,7.41
2018-04-06T08:53:53.981Z,7.44
2018-04-06T08:54:53.997Z,7.41
2018-04-06T08:55:54.019Z,7.42
2018-04-06T08:56:54.037Z,7.50
2018-04-06T08:57:54.053Z,7.51
2018-04-06T08:58:54.074Z,7.47
2018-04-06T08:59:54.092Z,7.54
2018-04-06T09:00:54.114Z,7.51
2018-04-06T09:01:54.135Z,7.66
2018-04-06T09:02:54.152Z,7.60
2018-04-06T09:03:54.166Z,7.63
2018-04-06T09:04:54.191Z,7.67
2018-04-06T09:05:54.243Z,7.67
2018-04-06T09:06:54.228Z,7.66
2018-04-06T09:07:54.246Z,7.70
2018-04-06T09:08:54.284Z,7.74
2018-04-06T09:09:54.284Z,7.76
2018-04-06T09:10:54.327Z,7.85
2018-04-06T09:11:54.342Z,7.77
2018-04-06T09:12:54.337Z,7.82
2018-04-06T09:13:54.365Z,7.88
2018-04-06T09:14:54.385Z,7.76
2018-04-06T09:15:54.405Z,7.86
2018-04-06T09:16:54.420Z,7.81
2018-04-06T09:17:54.445Z,7.88
2018-04-06T09:18:54.466Z,7.84
2018-04-06T09:19:54.487Z,7.86
2018-04-06T09:20:54.502Z,7.84
2018-04-06T09:21:54.521Z,7.88
2018-04-06T09:22:54.538Z,7.95
2018-04-06T09:23:54.560Z,7.92
2018-04-06T09:24:54.574Z,8.00
2018-04-06T09:25:54.602Z,8.10
2018-04-06T09:26:54.618Z,8.06
2018-04-06T09:27:54.636Z,8.12
2018-04-06T09:28:54.652Z,8.09
2018-04-06T09:29:54.676Z,8.13
2018-04-06T09:30:54.695Z,8.07
2018-04-06T09:31:54.718Z,8.14
2018-04-06T09:32:54.733Z,8.14
2018-04-06T09:33:54.754Z,8.13
2018-04-06T09:34:54.776Z,8.20
2018-04-06T09:35:54.792Z,8.27
2018-04-06T09:36:54.814Z,8.27
2018-04-06T09:37:54.832Z,8.32
2018-04-06T09:38:54.852Z,8.31
2018-04-06T09:39:54.877Z,8.40
2018-04-06T09:40:54.893Z,8.42
2018-04-06T09:41:54.909Z,8.40
2018-04-06T09:42:54.930Z,8.50
2018-04-06T09:43:54.958Z,8.42
2018-04-06T09:44:54.973Z,8.43
2018-04-06T09:45:54.994Z,8.46
2018-04-06T09:46:55.016Z,8.49
2018-04-06T09:47:55.038Z,8.46
2018-04-06T09:48:55.052Z,8.57
2018-04-06T09:49:55.070Z,8.57
2018-04-06T09:50:55.088Z,8.58
2018-04-06T09:51:55.111Z,8.60
2018-04-06T09:52:55.133Z,8.67
2018-04-06T09:53:55.156Z,8.67
2018-04-06T09:54:55.172Z,8.63
2018-04-06T09:55:55.197Z,8.71
2018-04-06T09:56:55.220Z,8.75
2018-04-06T09:57:55.230Z,8.80
2018-04-06T09:58:55.254Z,8.78
2018-04-06T09:59:55.273Z,8.88
2018-04-06T10:00:55.299Z,8.85
2018-04-06T10:01:55.316Z,8.93
2018-04-06T10:02:55.339Z,8.94
2018-04-06T10:03:55.355Z,8.89
2018-04-06T10:04:55.373Z,8.96
2018-04-06T10:05:55.395Z,8.94
2018-04-06T10:06:55.415Z,9.01
2018-04-06T10:07:55.439Z,8.98
2018-04-06T10:08:55.459Z,9.10
2018-04-06T10:09:55.478Z,9.06
2018-04-06T10:10:55.495Z,9.12
2018-04-06T10:11:55.516Z,9.17
2018-04-06T10:12:55.533Z,9.19
2018-04-06T10:13:55.558Z,9.17
2018-04-06T10:14:55.575Z,9.13
2018-04-06T10:15:55.598Z,9.23
2018-04-06T10:16:55.619Z,9.32
2018-04-06T10:17:55.651Z,9.19
2018-04-06T10:18:55.660Z,9.37
2018-04-06T10:19:55.679Z,9.24
2018-04-06T10:20:55.708Z,9.31
2018-04-06T10:21:55.721Z,9.31
2018-04-06T10:22:55.741Z,9.40
2018-04-06T10:23:55.758Z,9.49
2018-04-06T10:24:55.780Z,9.55
2018-04-06T10:25:55.798Z,9.48
2018-04-06T10:26:55.823Z,9.50
2018-04-06T10:27:55.839Z,9.58
2018-04-06T10:28:55.870Z,9.52
2018-04-06T10:29:55.883Z,9.50
2018-04-06T10:30:55.902Z,9.68
2018-04-06T10:31:55.928Z,9.67
2018-04-06T10:32:55.942Z,9.78
2018-04-06T10:33:55.961Z,9.71
2018-04-06T10:34:55.985Z,9.80
2018-04-06T10:35:56.006Z,9.77
2018-04-06T10:36:56.022Z,9.85
2018-04-06T10:37:56.046Z,9.80
2018-04-06T10:38:56.069Z,9.89
2018-04-06T10:39:56.090Z,9.91
2018-04-06T10:40:56.110Z,10.02
2018-04-06T10:41:56.130Z,9.95
2018-04-06T10:42:56.150Z,10.04
2018-04-06T10:43:56.172Z,10.13
2018-04-06T10:44:56.204Z,10.18
2018-04-06T10:45:56.211Z,10.31
2018-04-06T10:46:56.230Z,10.43
2018-04-06T10:47:56.255Z,10.46
2018-04-06T10:48:56.272Z,10.62
2018-04-06T10:49:56.295Z,10.76
2018-04-06T10:50:56.314Z,10.78
2018-04-06T10:51:56.343Z,11.02
2018-04-06T10:52:56.356Z,11.05
2018-04-06T10:53:56.380Z,11.20
2018-04-06T10:54:56.396Z,11.39
2018-04-06T10:55:56.431Z,11.36
2018-04-06T10:56:56.449Z,11.49
2018-04-06T10:57:56.466Z,11.59
2018-04-06T10:58:56.487Z,11.77
2018-04-06T10:59:56.507Z,11.79
2018-04-06T11:00:56.531Z,11.98
2018-04-06T11:01:56.550Z,12.18
2018-04-06T11:02:56.574Z,12.61
2018-04-06T11:03:56.602Z,12.87
2018-04-06T11:04:56.625Z,13.09
2018-04-06T11:05:56.647Z,14.05
2018-04-06T11:06:56.666Z,15.35
2018-04-06T11:07:56.699Z,16.78
2018-04-06T11:08:56.725Z,18.36
2018-04-06T11:09:56.749Z,19.45
2018-04-06T11:10:56.770Z,20.60
2018-04-06T11:11:56.794Z,21.46
2018-04-06T11:12:56.832Z,21.89
2018-04-06T11:13:56.853Z,22.66
2018-04-06T11:14:56.884Z,22.78
2018-04-06T11:15:56.914Z,22.94
2018-04-06T11:16:56.939Z,23.15
2018-04-06T11:17:56.964Z,23.34
2018-04-06T11:18:56.992Z,23.87
2018-04-06T11:19:57.024Z,23.60
2018-04-06T11:20:57.049Z,22.96
2018-04-06T11:21:57.080Z,22.91
2018-04-06T11:22:57.166Z,23.68
2018-04-06T11:23:57.140Z,23.74
2018-04-06T11:24:57.170Z,23.56
2018-04-06T11:25:57.199Z,24.21
2018-04-06T11:26:57.229Z,24.02
2018-04-06T11:27:57.260Z,24.05
2018-04-06T11:28:57.292Z,24.12
2018-04-06T11:29:57.329Z,22.96
2018-04-06T11:30:57.359Z,22.97
2018-04-06T11:31:57.389Z,23.04
2018-04-06T11:32:57.426Z,23.93
2018-04-06T11:33:57.453Z,24.44
2018-04-06T11:34:57.483Z,25.16
2018-04-06T11:35:57.516Z,25.86
2018-04-06T11:36:57.545Z,25.97
2018-04-06T11:37:57.584Z,26.51
2018-04-06T11:38:57.609Z,26.39
2018-04-06T11:39:57.644Z,26.34
2018-04-06T11:40:57.680Z,24.98
2018-04-06T11:41:57.705Z,25.29
2018-04-06T11:42:57.747Z,25.75
2018-04-06T11:43:57.775Z,26.11
2018-04-06T11:44:57.814Z,25.64
2018-04-06T11:45:57.839Z,26.12
2018-04-06T11:46:57.872Z,26.19
2018-04-06T11:47:57.908Z,25.45
2018-04-06T11:48:57.939Z,25.98
2018-04-06T11:49:57.975Z,26.46
2018-04-06T11:50:58.005Z,26.47
2018-04-06T11:51:58.043Z,26.73
2018-04-06T11:52:58.075Z,26.91
2018-04-06T11:53:58.110Z,27.09
2018-04-06T11:54:58.143Z,27.59
2018-04-06T11:55:58.180Z,27.21
2018-04-06T11:56:58.221Z,27.63
2018-04-06T11:57:58.247Z,28.08
2018-04-06T11:58:58.286Z,28.30
2018-04-06T11:59:58.320Z,27.53
2018-04-06T12:00:58.349Z,27.33
2018-04-06T12:01:58.387Z,26.76
2018-04-06T12:02:58.425Z,26.87
2018-04-06T12:03:58.457Z,26.68
2018-04-06T12:04:58.492Z,26.11
2018-04-06T12:05:58.528Z,26.01
2018-04-06T12:06:58.574Z,25.17
2018-04-06T12:07:58.602Z,24.49
2018-04-06T12:08:58.632Z,24.05
2018-04-06T12:09:58.671Z,23.79
2018-04-06T12:10:58.704Z,23.78
2018-04-06T12:11:58.748Z,24.64
2018-04-06T12:12:58.772Z,25.41
2018-04-06T12:13:58.807Z,26.36
2018-04-06T12:14:58.846Z,26.75
2018-04-06T12:15:58.880Z,27.59
2018-04-06T12:16:58.915Z,26.69
2018-04-06T12:17:58.962Z,26.39
2018-04-06T12:18:58.982Z,25.66
2018-04-06T12:19:59.021Z,25.56
2018-04-06T12:20:59.049Z,25.59
2018-04-06T12:21:59.095Z,24.61
2018-04-06T12:22:59.127Z,24.09
2018-04-06T12:23:59.161Z,24.27
2018-04-06T12:24:59.191Z,24.59
2018-04-06T12:25:59.231Z,25.22
2018-04-06T12:26:59.266Z,25.78
2018-04-06T12:27:59.304Z,25.45
2018-04-06T12:28:59.336Z,26.28
2018-04-06T12:29:59.378Z,26.73
2018-04-06T12:30:59.411Z,26.79
2018-04-06T12:31:59.442Z,26.90
2018-04-06T12:32:59.481Z,27.80
2018-04-06T12:33:59.518Z,28.02
2018-04-06T12:34:59.558Z,27.53
2018-04-06T12:35:59.593Z,28.13
2018-04-06T12:36:59.625Z,28.01
2018-04-06T12:37:59.662Z,28.55
2018-04-06T12:38:59.705Z,29.10
2018-04-06T12:39:59.739Z,29.42
2018-04-06T12:40:59.786Z,30.16
2018-04-06T12:41:59.810Z,30.75
2018-04-06T12:42:59.847Z,30.07
2018-04-06T12:43:59.891Z,28.94
2018-04-06T12:44:59.928Z,29.25
2018-04-06T12:45:59.962Z,29.85
2018-04-06T12:47:00.000Z,30.04
2018-04-06T12:48:00.035Z,30.15
2018-04-06T12:49:00.080Z,30.61
2018-04-06T12:50:00.116Z,29.32
2018-04-06T12:51:00.160Z,29.36
2018-04-06T12:52:00.192Z,28.64
2018-04-06T12:53:00.231Z,27.72
2018-04-06T12:54:00.264Z,27.58
2018-04-06T12:55:00.309Z,28.14
2018-04-06T12:56:00.345Z,28.02
2018-04-06T12:57:00.386Z,27.83
2018-04-06T12:58:00.428Z,27.55
2018-04-06T12:59:00.458Z,26.75
2018-04-06T13:00:00.500Z,27.52
2018-04-06T13:01:00.542Z,27.49
2018-04-06T13:02:00.584Z,27.33
2018-04-06T13:03:00.651Z,28.18
2018-04-06T13:04:00.664Z,28.24
2018-04-06T13:05:00.697Z,29.08
2018-04-06T13:06:00.731Z,29.99
2018-04-06T13:07:00.772Z,29.69
2018-04-06T13:08:00.810Z,29.36
2018-04-06T13:09:00.852Z,29.23
2018-04-06T13:10:00.907Z,28.67
2018-04-06T13:11:00.928Z,29.23
2018-04-06T13:12:00.973Z,28.17
2018-04-06T13:13:01.013Z,27.95
2018-04-06T13:14:01.053Z,28.28